Killeen-Fort Hood Regional, TX

9:39 PM CDT on August 28, 2014 (GMT -0500)
Fort Hood | Change Station
CLOSE
Current Station
Airport
Location: Fort Hood,
Elevation: 1014 ft
Nearby Weather Stations

Elev 1014 ft 31.07 °N, 97.83 °W | Updated 44 minutes ago

Partly Cloudy
Partly Cloudy
84 °F
Feels Like 87 °F
N
9
Wind Variable Wind from ESE

Today
High -- | Low -- °F
--% Chance of Precip.
Yesterday
High -- | Low -- °F
Precip. -- in
7:05 AM 7:59 PM
Waxing Crescent, 11% visible
Pressure 29.86 in
Visibility 7.0 miles
Clouds Few 7000 ft
Heat Index 87 °F
Dew Point 68 °F
Humidity 58%
Rainfall 0.00 in
Snow Depth Not available.
UV 0 out of 12
Pollen 8.90 out of 12
Ozone Good
PM2.5 Good
Flu Activity Not available.
METAR KGRK 290155Z 12008KT 7SM FEW070 29/20 A2987 RMK SLP109

More Conditions Fewer Conditions

Pressure 29.86 in
Visibility 7.0 miles
Clouds Few 7000 ft
Heat Index 87 °F
Dew Point 68 °F
Humidity 58%
Rainfall 0.00 in
Snow Depth Not available.
UV 0 out of 12
Pollen 8.90 out of 12
Ozone Good
PM2.5 Good
Flu Activity Not available.
METAR KGRK 290155Z 12008KT 7SM FEW070 29/20 A2987 RMK SLP109

More Conditions Fewer Conditions

Nowcast | as of 8:39 PM CDT on August 28, 2014

A complex of showers and thunderstorms will move eastward across north central Texas tonight. Showers and storms will be possible over the next several hours...primarily north of Interstate 20 and west of Interstate 35...and will be capable of producing gusty winds...cloud to ground lightning...and localized heavy rain. Temperatures will continue to fall into the low 80s over the next few hours with southeast winds around 10 mph.

×

10-Day Weather Forecast

Almanac

Astronomy

Aug. 28, 2014 Rise Set
Actual Time 7:05 AM CDT 7:59 PM CDT
Civil Twilight 6:40 AM CDT 8:24 PM CDT
Nautical Twilight 6:10 AM CDT 8:53 PM CDT
Astronomical Twilight 5:40 AM CDT 9:23 PM CDT
Moon 9:44 AM CDT (8/28) 9:39 PM CDT (8/28)
Length of Visible Light 13h 43m
Length of Day
12h 54m
Tomorrow will be 1m 46s shorter.
Waxing Crescent, 11% of the Moon is Illuminated
Today
Waxing Crescent
Sep 2
First Quarter
Sep 8
Full
Sep 15
Last Quarter
Sep 24
New

Today's Extremes

State Highs State Lows

Community

WunderPhotos

Upload Photos

1,748,134 photos uploaded!

Nearby

Air Quality

  Air Quality AQ Index Pollutant
Yesterday Moderate
OZONE
Yesterday Good
PM2.5
Current Good
OZONE
Current Good
PM2.5
Thursday Moderate
OZONE
Thursday Good
PM10
Friday Good
PM10
Friday Good
OZONE
Saturday Good
PM10
Saturday Good
OZONE
Sunday Good
PM10
Sunday Good
OZONE

Snow Depth

Station Depth Elevation
No new snow has been reported.

Earthquake Activity

City Distance Mag. Time & Date
No recent earthquake activity has been reported nearby.
Minimum magnitude displayed is 2.5.

Coastal Water Temperatures

Place Temperature
No Stations Reporting

Nearby Weather Stations